Flight Track Log - Related Links

Times and Time Zones

All times are in EDT time to prevent confusion due to time zone crossing. See the JTA62 flight status page for this flight to view local times or setup timezone preferences in your user account.

Time Position Orientation Groundspeed Altitude Reporting Facility
EDT Latitude Longitude Course Direction KTS MPH feet Rate Location/Type
Sun 07:51:00 AM 26.5092 127.7565 18° North  Level Estimated
Sun 07:52:00 AM 26.6136 127.7935 18° North  Level Estimated
Sun 07:53:00 AM 26.7181 127.8305 18° North  Level Estimated
Sun 07:54:00 AM 26.8225 127.8677 18° North  Level Estimated
Sun 07:55:00 AM 26.9269 127.9048 18° North  Level Estimated
Sun 07:56:00 AM 27.0313 127.9421 18° North  Level Estimated
Sun 07:57:00 AM 27.1357 127.9795 18° North  Level Estimated
Sun 07:58:00 AM 27.2400 128.0169 18° North  Level Estimated
Sun 07:59:00 AM 27.3444 128.0544 18° North  Level Estimated
Sun 08:00:00 AM 27.4488 128.0919 18° North  Level Estimated
Sun 08:01:00 AM 27.5531 128.1295 18° North  Level Estimated
Sun 08:02:00 AM 27.6575 128.1672 18° North  Level Estimated
Sun 08:03:00 AM 27.7618 128.2050 18° North  Level Estimated
Sun 08:04:00 AM 27.8661 128.2428 18° North  Level Estimated
Sun 08:05:00 AM 27.9704 128.2807 18° North  Level Estimated
Sun 08:06:00 AM 28.0747 128.3187 18° North  Level Estimated
Sun 08:07:00 AM 28.1790 128.3568 18° North  Level Estimated
Sun 08:08:00 AM 28.2833 128.3949 18° North  Level Estimated
Sun 08:09:00 AM 28.3875 128.4331 18° North  Level Estimated
Sun 08:10:00 AM 28.4918 128.4714 18° North  Level Estimated
Sun 08:11:00 AM 28.5960 128.5097 18° North  Level Estimated
Sun 08:12:00 AM 28.7003 128.5482 18° North  Level Estimated
Sun 08:13:00 AM 28.8045 128.5867 18° North  Level Estimated
Sun 08:14:00 AM 28.9087 128.6253 18° North  Level Estimated
Sun 08:15:00 AM 29.0129 128.6639 18° North  Level Estimated
Sun 08:16:00 AM 29.1171 128.7027 18° North  Level Estimated
Sun 08:17:00 AM 29.2213 128.7415 18° North  Level Estimated
Sun 08:18:00 AM 29.3254 128.7804 18° North  Level Estimated
Sun 08:19:00 AM 29.4296 128.8194 18° North  Level Estimated
Sun 08:20:00 AM 29.5337 128.8584 18° North  Level Estimated
Sun 08:21:00 AM 29.6378 128.8976 18° North  Level Estimated
Sun 08:22:00 AM 29.7420 128.9368 18° North  Level Estimated
Sun 08:23:00 AM 29.8461 128.9761 18° North  Level Estimated
Sun 08:24:00 AM 29.9502 129.0155 18° North  Level Estimated
Sun 08:25:00 AM 30.0543 129.0549 18° North  Level Estimated
Sun 08:26:00 AM 30.1583 129.0945 18° North  Level Estimated
Sun 08:27:00 AM 30.2624 129.1341 18° North  Level Estimated
Sun 08:28:00 AM 30.3664 129.1738 18° North  Level Estimated
Sun 08:29:00 AM 30.4705 129.2136 18° North  Level Estimated
Sun 08:30:00 AM 30.5745 129.2535 18° North  Level Estimated
Sun 08:31:00 AM 30.6785 129.2935 18° North  Level Estimated
Sun 08:32:00 AM 30.7825 129.3336 18° North  Level Estimated
Sun 08:33:00 AM 30.8865 129.3737 18° North  Level Estimated
Sun 08:34:00 AM 30.9905 129.4139 18° North  Level Estimated
Sun 08:35:00 AM 31.0944 129.4543 18° North  Level Estimated
Sun 08:36:00 AM 31.1984 129.4947 18° North  Level Estimated
Sun 08:37:00 AM 31.3023 129.5352 18° North  Level Estimated
Sun 08:38:00 AM 31.4063 129.5758 18° North  Level Estimated
Sun 08:39:00 AM 31.5102 129.6164 18° North  Level Estimated
Sun 08:40:00 AM 31.6141 129.6572 18° North  Level Estimated
Sun 08:41:00 AM 31.7180 129.6981 18° North  Level Estimated
Sun 08:42:00 AM 31.8218 129.7390 19° North  Level Estimated
Sun 08:43:00 AM 31.9257 129.7801 19° North  Level Estimated
Sun 08:44:00 AM 32.0295 129.8212 19° North  Level Estimated
Sun 08:45:00 AM 32.1334 129.8624 19° North  Level Estimated
Sun 08:46:00 AM 32.2372 129.9037 19° North  Level Estimated
Sun 08:47:00 AM 32.3410 129.9452 19° North  Level Estimated
Sun 08:48:00 AM 32.4448 129.9867 19° North  Level Estimated
Sun 08:49:00 AM 32.5486 130.0283 19° North  Level Estimated
Sun 08:50:00 AM 32.6523 130.0700 19° North  Level Estimated
Sun 08:51:00 AM 32.7640 130.1150 19° North  Level Estimated
Sun 08:52:00 AM 32.8755 130.1600 19° North  Level Estimated
Sun 08:53:00 AM 32.9871 130.2052 19° North  Level Estimated
Sun 08:54:00 AM 33.0987 130.2506 19° North  Level Estimated
Sun 08:55:00 AM 33.2102 130.2960 19° North  Level Estimated
Sun 08:56:00 AM 33.3218 130.3415 19° North  Level Estimated
Sun 08:57:00 AM 33.4333 130.3872 19° North  Level Estimated
Sun 08:58:00 AM 33.5448 130.4330 19° North  Level Estimated
Sun 08:59:00 AM 33.5866 130.4502 19° North  Level Estimated
Sun 09:00:00 AM 33.5866 130.4502 248° West  Level Estimated
Sun 09:01:00 AM 33.5866 130.4502 248° West  Level Estimated
Sun 09:02:00 AM 33.5866 130.4502 248° West  Level Estimated
Sun 09:03:00 AM 33.5866 130.4502 248° West  Level Estimated
Sun 09:04:00 AM 33.5866 130.4502 248° West  Level Estimated
Sun 09:05:00 AM 33.5866 130.4502 248° West  Level Estimated
Sun 09:06:00 AM 33.5866 130.4502 248° West  Level Estimated
Sun 09:07:00 AM 33.5866 130.4502 248° West  Level Estimated
Sun 09:08:00 AM 33.5866 130.4502 248° West  Level Estimated

Login

Don't have an account? Register now (free) for customized features, flight alerts, and more!